غليزان, Algeria

09:24 PM CET on دسمبر 10, 2016 (GMT +0100)
Ghriss | | Change Station

Elev 1686 ft 35.21 °N, 0.15 °E | Updated 24 minutes ago

صافية
صافية
54 °F
Feels Like 54 °F
N
0
ريح متغير ريح from شمال

هذا اليوم
High -- | Low -- °F
--% Chance of Precip.
Yesterday
High -- | Low -- °F
Precip. -- في
الضغط 30.33 في
وضوح الرؤية 6.2 أميال
سحابات Few 3300 ft
نقطة الندى 46 °F
الرطوبة 77%
Rainfall 0.00 في
عمق الثلج Not available.
7:56 AM 5:44 PM
الأحدب الأول, 86% visible
METAR DAOV 102000Z 00000KT 9999 FEW033 12/08 Q1027
الضغط 30.33 في
وضوح الرؤية 6.2 أميال
سحابات Few 3300 ft
نقطة الندى 46 °F
الرطوبة 77%
Rainfall 0.00 في
عمق الثلج Not available.
7:56 AM 5:44 PM
الأحدب الأول, 86% visible
METAR DAOV 102000Z 00000KT 9999 FEW033 12/08 Q1027

10-Day Weather Forecast

No radar image for this location.
×

Almanac

علم الفلك

Dec. 10, 2016 Rise Set
Actual Time
Civil Twilight
Nautical Twilight
Astronomical Twilight
قمر
Length Of Visible Light
طول الیوم
Tomorrow will be .
, % of the Moon is Illuminated

Today's Extremes

Country Highs Country Lows

Community

WunderPhotos

Upload Photos

1,956,651 photos uploaded!

WunderBlog® & News

Nearby

جودة الهواء

  جودة الهواء AQ Index Pollutant
Not available.

عمق الثلج

Station Depth Elevation

Earthquake Activity

City Distance Mag. Time & Date
Minimum magnitude displayed is 2.5.

Coastal Water Temperatures

مكان درجات الحرارة

Stations

Nearby Weather Stations

Station Location الحرارة رياح باردة نقطة الندى الرطوبة ريح Precip. Elev تحديث Type